sensor_id;sensor_type;location;lat;lon;timestamp;temperature;humidity
11583;DHT22;34299;50.820;4.548;2023-12-20T00:02:02;5.90;99.90
11583;DHT22;34299;50.820;4.548;2023-12-20T00:04:29;5.90;99.90
11583;DHT22;34299;50.820;4.548;2023-12-20T00:06:57;5.70;99.90
11583;DHT22;34299;50.820;4.548;2023-12-20T00:09:23;5.70;99.90
11583;DHT22;34299;50.820;4.548;2023-12-20T00:11:50;5.80;99.90
11583;DHT22;34299;50.820;4.548;2023-12-20T00:14:17;5.70;99.90
11583;DHT22;34299;50.820;4.548;2023-12-20T00:16:43;5.80;99.90
11583;DHT22;34299;50.820;4.548;2023-12-20T00:19:10;5.90;99.90
11583;DHT22;34299;50.820;4.548;2023-12-20T00:21:37;5.90;99.90
11583;DHT22;34299;50.820;4.548;2023-12-20T00:24:05;5.80;99.90
11583;DHT22;34299;50.820;4.548;2023-12-20T00:26:32;5.90;99.90
11583;DHT22;34299;50.820;4.548;2023-12-20T00:28:59;6.00;99.90
11583;DHT22;34299;50.820;4.548;2023-12-20T00:31:26;5.90;99.90
11583;DHT22;34299;50.820;4.548;2023-12-20T00:33:52;5.80;99.90
11583;DHT22;34299;50.820;4.548;2023-12-20T00:36:20;5.80;99.90
11583;DHT22;34299;50.820;4.548;2023-12-20T00:38:46;5.90;99.90
11583;DHT22;34299;50.820;4.548;2023-12-20T00:41:14;5.70;99.90
11583;DHT22;34299;50.820;4.548;2023-12-20T00:43:41;5.60;99.90
11583;DHT22;34299;50.820;4.548;2023-12-20T00:46:08;5.50;99.90
11583;DHT22;34299;50.820;4.548;2023-12-20T00:48:34;5.70;99.90
11583;DHT22;34299;50.820;4.548;2023-12-20T00:51:01;5.60;99.90
11583;DHT22;34299;50.820;4.548;2023-12-20T00:53:29;5.50;99.90
11583;DHT22;34299;50.820;4.548;2023-12-20T00:55:55;5.40;99.90
11583;DHT22;34299;50.820;4.548;2023-12-20T00:58:25;5.40;99.90
11583;DHT22;34299;50.820;4.548;2023-12-20T01:00:52;5.50;99.90
11583;DHT22;34299;50.820;4.548;2023-12-20T01:03:19;5.40;99.90
11583;DHT22;34299;50.820;4.548;2023-12-20T01:05:45;5.40;99.90
11583;DHT22;34299;50.820;4.548;2023-12-20T01:08:12;5.40;99.90
11583;DHT22;34299;50.820;4.548;2023-12-20T01:10:39;5.40;99.90
11583;DHT22;34299;50.820;4.548;2023-12-20T01:13:07;5.40;99.90
11583;DHT22;34299;50.820;4.548;2023-12-20T01:15:35;5.20;99.90
11583;DHT22;34299;50.820;4.548;2023-12-20T01:18:02;5.30;99.90
11583;DHT22;34299;50.820;4.548;2023-12-20T01:20:29;5.30;99.90
11583;DHT22;34299;50.820;4.548;2023-12-20T01:22:56;5.30;99.90
11583;DHT22;34299;50.820;4.548;2023-12-20T01:25:23;5.30;99.90
11583;DHT22;34299;50.820;4.548;2023-12-20T01:27:50;5.20;99.90
11583;DHT22;34299;50.820;4.548;2023-12-20T01:30:16;5.00;99.90
11583;DHT22;34299;50.820;4.548;2023-12-20T01:32:44;5.10;99.90
11583;DHT22;34299;50.820;4.548;2023-12-20T01:35:11;5.10;99.90
11583;DHT22;34299;50.820;4.548;2023-12-20T01:37:39;4.90;99.90
11583;DHT22;34299;50.820;4.548;2023-12-20T01:40:06;5.00;99.90
11583;DHT22;34299;50.820;4.548;2023-12-20T01:42:33;5.00;99.90
11583;DHT22;34299;50.820;4.548;2023-12-20T01:45:00;4.90;99.90
11583;DHT22;34299;50.820;4.548;2023-12-20T01:47:27;4.90;99.90
11583;DHT22;34299;50.820;4.548;2023-12-20T01:49:55;4.80;99.90
11583;DHT22;34299;50.820;4.548;2023-12-20T01:52:23;4.90;99.90
11583;DHT22;34299;50.820;4.548;2023-12-20T01:54:51;4.90;99.90
11583;DHT22;34299;50.820;4.548;2023-12-20T01:57:20;4.90;99.90
11583;DHT22;34299;50.820;4.548;2023-12-20T01:59:47;4.90;99.90
11583;DHT22;34299;50.820;4.548;2023-12-20T02:02:13;4.90;99.90
11583;DHT22;34299;50.820;4.548;2023-12-20T02:04:40;5.10;99.90
11583;DHT22;34299;50.820;4.548;2023-12-20T02:07:08;4.80;99.90
11583;DHT22;34299;50.820;4.548;2023-12-20T02:09:36;4.90;99.90
11583;DHT22;34299;50.820;4.548;2023-12-20T02:12:03;5.00;99.90
11583;DHT22;34299;50.820;4.548;2023-12-20T02:14:30;5.10;99.90
11583;DHT22;34299;50.820;4.548;2023-12-20T02:16:57;4.80;99.90
11583;DHT22;34299;50.820;4.548;2023-12-20T02:19:24;5.00;99.90
11583;DHT22;34299;50.820;4.548;2023-12-20T02:22:05;5.00;99.90
11583;DHT22;34299;50.820;4.548;2023-12-20T02:24:32;5.00;99.90
11583;DHT22;34299;50.820;4.548;2023-12-20T02:26:59;4.90;99.90
11583;DHT22;34299;50.820;4.548;2023-12-20T02:29:25;5.00;99.90
11583;DHT22;34299;50.820;4.548;2023-12-20T02:31:53;4.90;99.90
11583;DHT22;34299;50.820;4.548;2023-12-20T02:34:19;4.80;99.90
11583;DHT22;34299;50.820;4.548;2023-12-20T02:36:46;4.90;99.90
11583;DHT22;34299;50.820;4.548;2023-12-20T02:39:14;4.90;99.90
11583;DHT22;34299;50.820;4.548;2023-12-20T02:41:41;5.00;99.90
11583;DHT22;34299;50.820;4.548;2023-12-20T02:44:07;4.90;99.90
11583;DHT22;34299;50.820;4.548;2023-12-20T02:46:34;4.80;99.90
11583;DHT22;34299;50.820;4.548;2023-12-20T02:49:01;4.90;99.90
11583;DHT22;34299;50.820;4.548;2023-12-20T02:51:27;4.70;99.90
11583;DHT22;34299;50.820;4.548;2023-12-20T02:53:54;5.10;99.90
11583;DHT22;34299;50.820;4.548;2023-12-20T02:56:22;5.00;99.90
11583;DHT22;34299;50.820;4.548;2023-12-20T02:58:49;5.00;99.90
11583;DHT22;34299;50.820;4.548;2023-12-20T03:01:16;5.00;99.90
11583;DHT22;34299;50.820;4.548;2023-12-20T03:03:42;5.20;99.90
11583;DHT22;34299;50.820;4.548;2023-12-20T03:06:09;5.40;99.90
11583;DHT22;34299;50.820;4.548;2023-12-20T03:08:36;5.00;99.90
11583;DHT22;34299;50.820;4.548;2023-12-20T03:11:04;5.00;99.90
11583;DHT22;34299;50.820;4.548;2023-12-20T03:13:32;5.10;99.90
11583;DHT22;34299;50.820;4.548;2023-12-20T03:15:58;5.10;99.90
11583;DHT22;34299;50.820;4.548;2023-12-20T03:18:25;5.20;99.90
11583;DHT22;34299;50.820;4.548;2023-12-20T03:20:53;5.20;99.90
11583;DHT22;34299;50.820;4.548;2023-12-20T03:23:20;5.30;99.90
11583;DHT22;34299;50.820;4.548;2023-12-20T03:25:46;5.30;99.90
11583;DHT22;34299;50.820;4.548;2023-12-20T03:28:14;5.30;99.90
11583;DHT22;34299;50.820;4.548;2023-12-20T03:30:42;5.20;99.90
11583;DHT22;34299;50.820;4.548;2023-12-20T03:33:10;5.30;99.90
11583;DHT22;34299;50.820;4.548;2023-12-20T03:35:37;5.30;99.90
11583;DHT22;34299;50.820;4.548;2023-12-20T03:38:04;5.30;99.90
11583;DHT22;34299;50.820;4.548;2023-12-20T03:40:31;5.30;99.90
11583;DHT22;34299;50.820;4.548;2023-12-20T03:42:57;5.10;99.90
11583;DHT22;34299;50.820;4.548;2023-12-20T03:45:24;5.30;99.90
11583;DHT22;34299;50.820;4.548;2023-12-20T03:47:52;5.30;99.90
11583;DHT22;34299;50.820;4.548;2023-12-20T03:50:20;5.50;99.90
11583;DHT22;34299;50.820;4.548;2023-12-20T03:52:47;5.50;99.90
11583;DHT22;34299;50.820;4.548;2023-12-20T03:55:14;5.50;99.90
11583;DHT22;34299;50.820;4.548;2023-12-20T03:57:41;5.40;99.90
11583;DHT22;34299;50.820;4.548;2023-12-20T04:00:08;5.30;99.90
11583;DHT22;34299;50.820;4.548;2023-12-20T04:02:35;5.20;99.90
11583;DHT22;34299;50.820;4.548;2023-12-20T04:05:04;5.40;99.90
11583;DHT22;34299;50.820;4.548;2023-12-20T04:07:31;5.40;99.90
11583;DHT22;34299;50.820;4.548;2023-12-20T04:09:58;5.50;99.90
11583;DHT22;34299;50.820;4.548;2023-12-20T04:12:24;5.50;99.90
11583;DHT22;34299;50.820;4.548;2023-12-20T04:14:51;5.50;99.90
11583;DHT22;34299;50.820;4.548;2023-12-20T04:17:18;5.60;99.90
11583;DHT22;34299;50.820;4.548;2023-12-20T04:19:44;5.50;99.90
11583;DHT22;34299;50.820;4.548;2023-12-20T04:22:12;5.50;99.90
11583;DHT22;34299;50.820;4.548;2023-12-20T04:24:39;5.50;99.90
11583;DHT22;34299;50.820;4.548;2023-12-20T04:27:07;5.50;99.90
11583;DHT22;34299;50.820;4.548;2023-12-20T04:29:34;5.50;99.90
11583;DHT22;34299;50.820;4.548;2023-12-20T04:32:00;5.50;99.90
11583;DHT22;34299;50.820;4.548;2023-12-20T04:34:27;5.50;99.90
11583;DHT22;34299;50.820;4.548;2023-12-20T04:36:54;5.40;99.90
11583;DHT22;34299;50.820;4.548;2023-12-20T04:39:22;5.40;99.90
11583;DHT22;34299;50.820;4.548;2023-12-20T04:41:49;5.40;99.90
11583;DHT22;34299;50.820;4.548;2023-12-20T04:44:15;5.30;99.90
11583;DHT22;34299;50.820;4.548;2023-12-20T04:46:42;5.30;99.90
11583;DHT22;34299;50.820;4.548;2023-12-20T04:49:09;5.20;99.90
11583;DHT22;34299;50.820;4.548;2023-12-20T04:51:35;5.20;99.90
11583;DHT22;34299;50.820;4.548;2023-12-20T04:54:03;5.30;99.90
11583;DHT22;34299;50.820;4.548;2023-12-20T04:56:31;5.30;99.90
11583;DHT22;34299;50.820;4.548;2023-12-20T04:58:58;5.30;99.90
11583;DHT22;34299;50.820;4.548;2023-12-20T05:01:25;5.30;99.90
11583;DHT22;34299;50.820;4.548;2023-12-20T05:03:51;5.20;99.90
11583;DHT22;34299;50.820;4.548;2023-12-20T05:06:18;5.30;99.90
11583;DHT22;34299;50.820;4.548;2023-12-20T05:08:45;5.30;99.90
11583;DHT22;34299;50.820;4.548;2023-12-20T05:11:12;5.40;99.90
11583;DHT22;34299;50.820;4.548;2023-12-20T05:13:41;5.40;99.90
11583;DHT22;34299;50.820;4.548;2023-12-20T05:16:08;5.20;99.90
11583;DHT22;34299;50.820;4.548;2023-12-20T05:18:35;5.30;99.90
11583;DHT22;34299;50.820;4.548;2023-12-20T05:21:02;5.30;99.90
11583;DHT22;34299;50.820;4.548;2023-12-20T05:23:29;5.30;99.90
11583;DHT22;34299;50.820;4.548;2023-12-20T05:25:55;5.30;99.90
11583;DHT22;34299;50.820;4.548;2023-12-20T05:28:22;5.30;99.90
11583;DHT22;34299;50.820;4.548;2023-12-20T05:30:50;5.30;99.90
11583;DHT22;34299;50.820;4.548;2023-12-20T05:33:17;5.20;99.90
11583;DHT22;34299;50.820;4.548;2023-12-20T05:35:44;5.10;99.90
11583;DHT22;34299;50.820;4.548;2023-12-20T05:38:10;5.10;99.90
11583;DHT22;34299;50.820;4.548;2023-12-20T05:40:37;5.10;99.90
11583;DHT22;34299;50.820;4.548;2023-12-20T05:43:04;5.10;99.90
11583;DHT22;34299;50.820;4.548;2023-12-20T05:45:30;5.10;99.90
11583;DHT22;34299;50.820;4.548;2023-12-20T05:47:58;5.40;99.90
11583;DHT22;34299;50.820;4.548;2023-12-20T05:50:25;5.20;99.90
11583;DHT22;34299;50.820;4.548;2023-12-20T05:52:51;5.20;99.90
11583;DHT22;34299;50.820;4.548;2023-12-20T05:55:19;5.10;99.90
11583;DHT22;34299;50.820;4.548;2023-12-20T05:57:45;5.00;99.90
11583;DHT22;34299;50.820;4.548;2023-12-20T06:00:13;5.30;99.90
11583;DHT22;34299;50.820;4.548;2023-12-20T06:02:41;5.00;99.90
11583;DHT22;34299;50.820;4.548;2023-12-20T06:05:09;5.00;99.90
11583;DHT22;34299;50.820;4.548;2023-12-20T06:07:35;5.00;99.90
11583;DHT22;34299;50.820;4.548;2023-12-20T06:10:02;5.10;99.90
11583;DHT22;34299;50.820;4.548;2023-12-20T06:12:31;5.20;99.90
11583;DHT22;34299;50.820;4.548;2023-12-20T06:15:01;5.20;99.90
11583;DHT22;34299;50.820;4.548;2023-12-20T06:17:27;5.10;99.90
11583;DHT22;34299;50.820;4.548;2023-12-20T06:19:56;5.00;99.90
11583;DHT22;34299;50.820;4.548;2023-12-20T06:22:24;4.90;99.90
11583;DHT22;34299;50.820;4.548;2023-12-20T06:24:50;5.00;99.90
11583;DHT22;34299;50.820;4.548;2023-12-20T06:27:17;5.00;99.90
11583;DHT22;34299;50.820;4.548;2023-12-20T06:29:44;4.90;99.90
11583;DHT22;34299;50.820;4.548;2023-12-20T06:32:11;5.00;99.90
11583;DHT22;34299;50.820;4.548;2023-12-20T06:34:38;5.10;99.90
11583;DHT22;34299;50.820;4.548;2023-12-20T06:37:05;5.00;99.90
11583;DHT22;34299;50.820;4.548;2023-12-20T06:39:33;5.10;99.90
11583;DHT22;34299;50.820;4.548;2023-12-20T06:42:00;5.10;99.90
11583;DHT22;34299;50.820;4.548;2023-12-20T06:44:27;5.00;99.90
11583;DHT22;34299;50.820;4.548;2023-12-20T06:46:53;5.10;99.90
11583;DHT22;34299;50.820;4.548;2023-12-20T06:49:20;5.10;99.90
11583;DHT22;34299;50.820;4.548;2023-12-20T06:51:47;5.00;99.90
11583;DHT22;34299;50.820;4.548;2023-12-20T06:54:14;5.00;99.90
11583;DHT22;34299;50.820;4.548;2023-12-20T06:56:42;4.90;99.90
11583;DHT22;34299;50.820;4.548;2023-12-20T06:59:08;5.00;99.90
11583;DHT22;34299;50.820;4.548;2023-12-20T07:01:35;4.90;99.90
11583;DHT22;34299;50.820;4.548;2023-12-20T07:04:02;5.00;99.90
11583;DHT22;34299;50.820;4.548;2023-12-20T07:06:29;5.00;99.90
11583;DHT22;34299;50.820;4.548;2023-12-20T07:08:55;4.90;99.90
11583;DHT22;34299;50.820;4.548;2023-12-20T07:11:22;4.80;99.90
11583;DHT22;34299;50.820;4.548;2023-12-20T07:13:51;4.70;99.90
11583;DHT22;34299;50.820;4.548;2023-12-20T07:16:17;4.80;99.90
11583;DHT22;34299;50.820;4.548;2023-12-20T07:18:44;4.80;99.90
11583;DHT22;34299;50.820;4.548;2023-12-20T07:21:11;4.70;99.90
11583;DHT22;34299;50.820;4.548;2023-12-20T07:23:37;4.90;99.90
11583;DHT22;34299;50.820;4.548;2023-12-20T07:26:04;4.90;99.90
11583;DHT22;34299;50.820;4.548;2023-12-20T07:28:31;4.80;99.90
11583;DHT22;34299;50.820;4.548;2023-12-20T07:30:59;4.70;99.90
11583;DHT22;34299;50.820;4.548;2023-12-20T07:33:26;4.80;99.90
11583;DHT22;34299;50.820;4.548;2023-12-20T07:35:52;4.80;99.90
11583;DHT22;34299;50.820;4.548;2023-12-20T07:38:19;4.80;99.90
11583;DHT22;34299;50.820;4.548;2023-12-20T07:40:46;4.70;99.90
11583;DHT22;34299;50.820;4.548;2023-12-20T07:43:12;4.80;99.90
11583;DHT22;34299;50.820;4.548;2023-12-20T07:45:39;4.70;99.90
11583;DHT22;34299;50.820;4.548;2023-12-20T07:48:08;4.80;99.90
11583;DHT22;34299;50.820;4.548;2023-12-20T07:50:34;4.60;99.90
11583;DHT22;34299;50.820;4.548;2023-12-20T07:53:02;4.60;99.90
11583;DHT22;34299;50.820;4.548;2023-12-20T07:55:28;4.60;99.90
11583;DHT22;34299;50.820;4.548;2023-12-20T07:57:55;4.70;99.90
11583;DHT22;34299;50.820;4.548;2023-12-20T08:00:22;4.70;99.90
11583;DHT22;34299;50.820;4.548;2023-12-20T08:02:49;4.60;99.90
11583;DHT22;34299;50.820;4.548;2023-12-20T08:05:17;4.70;99.90
11583;DHT22;34299;50.820;4.548;2023-12-20T08:07:44;4.70;99.90
11583;DHT22;34299;50.820;4.548;2023-12-20T08:10:10;4.70;99.90
11583;DHT22;34299;50.820;4.548;2023-12-20T08:12:38;4.70;99.90
11583;DHT22;34299;50.820;4.548;2023-12-20T08:15:05;4.70;99.90
11583;DHT22;34299;50.820;4.548;2023-12-20T08:17:32;4.80;99.90
11583;DHT22;34299;50.820;4.548;2023-12-20T08:19:59;4.90;99.90
11583;DHT22;34299;50.820;4.548;2023-12-20T08:22:27;4.80;99.90
11583;DHT22;34299;50.820;4.548;2023-12-20T08:24:54;4.80;99.90
11583;DHT22;34299;50.820;4.548;2023-12-20T08:27:21;4.70;99.90
11583;DHT22;34299;50.820;4.548;2023-12-20T08:29:48;4.80;99.90
11583;DHT22;34299;50.820;4.548;2023-12-20T08:32:16;4.80;99.90
11583;DHT22;34299;50.820;4.548;2023-12-20T08:34:42;4.80;99.90
11583;DHT22;34299;50.820;4.548;2023-12-20T08:37:09;4.90;99.90
11583;DHT22;34299;50.820;4.548;2023-12-20T08:39:37;4.90;99.90
11583;DHT22;34299;50.820;4.548;2023-12-20T08:42:04;5.00;99.90
11583;DHT22;34299;50.820;4.548;2023-12-20T08:44:31;5.00;99.90
11583;DHT22;34299;50.820;4.548;2023-12-20T08:46:57;5.00;99.90
11583;DHT22;34299;50.820;4.548;2023-12-20T08:49:24;5.00;99.90
11583;DHT22;34299;50.820;4.548;2023-12-20T08:51:51;5.10;99.90
11583;DHT22;34299;50.820;4.548;2023-12-20T08:54:18;5.10;99.90
11583;DHT22;34299;50.820;4.548;2023-12-20T08:56:46;5.10;99.90
11583;DHT22;34299;50.820;4.548;2023-12-20T08:59:13;5.20;99.90
11583;DHT22;34299;50.820;4.548;2023-12-20T09:01:39;5.20;99.90
11583;DHT22;34299;50.820;4.548;2023-12-20T09:04:06;5.20;99.90
11583;DHT22;34299;50.820;4.548;2023-12-20T09:06:33;5.30;99.90
11583;DHT22;34299;50.820;4.548;2023-12-20T09:09:00;5.20;99.90
11583;DHT22;34299;50.820;4.548;2023-12-20T09:11:26;5.30;99.90
11583;DHT22;34299;50.820;4.548;2023-12-20T09:13:54;5.30;99.90
11583;DHT22;34299;50.820;4.548;2023-12-20T09:16:21;5.30;99.90
11583;DHT22;34299;50.820;4.548;2023-12-20T09:18:48;5.70;99.90
11583;DHT22;34299;50.820;4.548;2023-12-20T09:21:15;5.80;99.90
11583;DHT22;34299;50.820;4.548;2023-12-20T09:23:42;6.20;99.90
11583;DHT22;34299;50.820;4.548;2023-12-20T09:26:09;6.10;99.90
11583;DHT22;34299;50.820;4.548;2023-12-20T09:28:35;6.60;99.90
11583;DHT22;34299;50.820;4.548;2023-12-20T09:31:05;6.20;99.90
11583;DHT22;34299;50.820;4.548;2023-12-20T09:33:32;6.50;99.90
11583;DHT22;34299;50.820;4.548;2023-12-20T09:35:58;6.40;99.90
11583;DHT22;34299;50.820;4.548;2023-12-20T09:38:25;6.60;99.90
11583;DHT22;34299;50.820;4.548;2023-12-20T09:40:52;6.60;99.90
11583;DHT22;34299;50.820;4.548;2023-12-20T09:43:19;6.80;99.90
11583;DHT22;34299;50.820;4.548;2023-12-20T09:45:47;7.50;99.90
11583;DHT22;34299;50.820;4.548;2023-12-20T09:48:15;7.10;99.90
11583;DHT22;34299;50.820;4.548;2023-12-20T09:50:44;7.60;99.90
11583;DHT22;34299;50.820;4.548;2023-12-20T09:53:12;8.00;99.90
11583;DHT22;34299;50.820;4.548;2023-12-20T09:55:41;7.50;99.90
11583;DHT22;34299;50.820;4.548;2023-12-20T09:58:08;8.30;99.90
11583;DHT22;34299;50.820;4.548;2023-12-20T10:00:34;8.30;99.90
11583;DHT22;34299;50.820;4.548;2023-12-20T10:03:02;8.70;99.90
11583;DHT22;34299;50.820;4.548;2023-12-20T10:05:32;8.50;99.90
11583;DHT22;34299;50.820;4.548;2023-12-20T10:07:59;7.90;99.90
11583;DHT22;34299;50.820;4.548;2023-12-20T10:10:26;8.40;99.90
11583;DHT22;34299;50.820;4.548;2023-12-20T10:13:03;8.80;99.90
11583;DHT22;34299;50.820;4.548;2023-12-20T10:15:30;8.90;99.90
11583;DHT22;34299;50.820;4.548;2023-12-20T10:17:57;8.00;99.90
11583;DHT22;34299;50.820;4.548;2023-12-20T10:20:24;7.30;99.90
11583;DHT22;34299;50.820;4.548;2023-12-20T10:22:53;6.90;99.90
11583;DHT22;34299;50.820;4.548;2023-12-20T10:25:20;6.90;99.90
11583;DHT22;34299;50.820;4.548;2023-12-20T10:27:47;7.90;99.90
11583;DHT22;34299;50.820;4.548;2023-12-20T10:30:14;9.30;99.90
11583;DHT22;34299;50.820;4.548;2023-12-20T10:32:41;9.00;99.90
11583;DHT22;34299;50.820;4.548;2023-12-20T10:35:08;7.60;99.90
11583;DHT22;34299;50.820;4.548;2023-12-20T10:37:35;7.10;99.90
11583;DHT22;34299;50.820;4.548;2023-12-20T10:40:03;6.80;99.90
11583;DHT22;34299;50.820;4.548;2023-12-20T10:42:31;6.60;99.90
11583;DHT22;34299;50.820;4.548;2023-12-20T10:44:58;6.80;99.90
11583;DHT22;34299;50.820;4.548;2023-12-20T10:47:25;6.60;99.90
11583;DHT22;34299;50.820;4.548;2023-12-20T10:49:52;6.40;99.90
11583;DHT22;34299;50.820;4.548;2023-12-20T10:52:19;6.50;99.90
11583;DHT22;34299;50.820;4.548;2023-12-20T10:54:46;6.60;99.90
11583;DHT22;34299;50.820;4.548;2023-12-20T10:57:14;6.70;99.90
11583;DHT22;34299;50.820;4.548;2023-12-20T10:59:43;6.60;99.90
11583;DHT22;34299;50.820;4.548;2023-12-20T11:02:11;6.70;99.90
11583;DHT22;34299;50.820;4.548;2023-12-20T11:04:40;7.10;99.90
11583;DHT22;34299;50.820;4.548;2023-12-20T11:07:15;6.80;99.90
11583;DHT22;34299;50.820;4.548;2023-12-20T11:09:46;6.80;99.90
11583;DHT22;34299;50.820;4.548;2023-12-20T11:12:16;6.80;99.90
11583;DHT22;34299;50.820;4.548;2023-12-20T11:14:46;6.80;99.90
11583;DHT22;34299;50.820;4.548;2023-12-20T11:17:13;6.80;99.90
11583;DHT22;34299;50.820;4.548;2023-12-20T11:22:39;6.90;99.90
11583;DHT22;34299;50.820;4.548;2023-12-20T11:25:07;7.00;99.90
11583;DHT22;34299;50.820;4.548;2023-12-20T11:27:36;6.90;99.90
11583;DHT22;34299;50.820;4.548;2023-12-20T11:30:03;6.90;99.90
11583;DHT22;34299;50.820;4.548;2023-12-20T11:32:33;7.00;99.90
11583;DHT22;34299;50.820;4.548;2023-12-20T11:35:00;7.00;99.90
11583;DHT22;34299;50.820;4.548;2023-12-20T11:37:28;7.10;99.90
11583;DHT22;34299;50.820;4.548;2023-12-20T11:39:55;7.00;99.90
11583;DHT22;34299;50.820;4.548;2023-12-20T11:42:22;6.90;99.90
11583;DHT22;34299;50.820;4.548;2023-12-20T11:44:51;7.00;99.90
11583;DHT22;34299;50.820;4.548;2023-12-20T11:47:18;7.00;99.90
11583;DHT22;34299;50.820;4.548;2023-12-20T11:49:46;7.00;99.90
11583;DHT22;34299;50.820;4.548;2023-12-20T11:52:13;7.10;99.90
11583;DHT22;34299;50.820;4.548;2023-12-20T11:54:40;7.00;99.90
11583;DHT22;34299;50.820;4.548;2023-12-20T11:57:07;7.00;99.90
11583;DHT22;34299;50.820;4.548;2023-12-20T11:59:34;7.00;99.90
11583;DHT22;34299;50.820;4.548;2023-12-20T12:02:02;7.00;99.90
11583;DHT22;34299;50.820;4.548;2023-12-20T12:04:28;6.90;99.90
11583;DHT22;34299;50.820;4.548;2023-12-20T12:06:55;7.00;99.90
11583;DHT22;34299;50.820;4.548;2023-12-20T12:09:22;7.00;99.90
11583;DHT22;34299;50.820;4.548;2023-12-20T12:11:48;7.00;99.90
11583;DHT22;34299;50.820;4.548;2023-12-20T12:14:15;6.90;99.90
11583;DHT22;34299;50.820;4.548;2023-12-20T12:16:42;6.90;99.90
11583;DHT22;34299;50.820;4.548;2023-12-20T12:19:20;6.90;99.90
11583;DHT22;34299;50.820;4.548;2023-12-20T12:21:47;7.10;99.90
11583;DHT22;34299;50.820;4.548;2023-12-20T12:24:14;7.00;99.90
11583;DHT22;34299;50.820;4.548;2023-12-20T12:26:41;7.00;99.90
11583;DHT22;34299;50.820;4.548;2023-12-20T12:29:08;7.00;99.90
11583;DHT22;34299;50.820;4.548;2023-12-20T12:31:35;7.00;99.90
11583;DHT22;34299;50.820;4.548;2023-12-20T12:34:01;7.10;99.90
11583;DHT22;34299;50.820;4.548;2023-12-20T12:36:30;7.00;99.90
11583;DHT22;34299;50.820;4.548;2023-12-20T12:38:56;6.90;99.90
11583;DHT22;34299;50.820;4.548;2023-12-20T12:41:23;7.10;99.90
11583;DHT22;34299;50.820;4.548;2023-12-20T12:43:50;7.00;99.90
11583;DHT22;34299;50.820;4.548;2023-12-20T12:46:17;7.10;99.90
11583;DHT22;34299;50.820;4.548;2023-12-20T12:48:43;7.10;99.90
11583;DHT22;34299;50.820;4.548;2023-12-20T12:51:10;7.10;99.90
11583;DHT22;34299;50.820;4.548;2023-12-20T12:53:40;7.10;99.90
11583;DHT22;34299;50.820;4.548;2023-12-20T12:56:07;7.10;99.90
11583;DHT22;34299;50.820;4.548;2023-12-20T12:58:34;7.30;99.90
11583;DHT22;34299;50.820;4.548;2023-12-20T13:01:00;7.30;99.90
11583;DHT22;34299;50.820;4.548;2023-12-20T13:03:28;7.20;99.90
11583;DHT22;34299;50.820;4.548;2023-12-20T13:05:55;7.20;99.90
11583;DHT22;34299;50.820;4.548;2023-12-20T13:08:22;7.30;99.90
11583;DHT22;34299;50.820;4.548;2023-12-20T13:10:50;7.10;99.90
11583;DHT22;34299;50.820;4.548;2023-12-20T13:13:17;7.20;99.90
11583;DHT22;34299;50.820;4.548;2023-12-20T13:15:43;7.20;99.90
11583;DHT22;34299;50.820;4.548;2023-12-20T13:18:16;7.30;99.90
11583;DHT22;34299;50.820;4.548;2023-12-20T13:20:43;7.20;99.90
11583;DHT22;34299;50.820;4.548;2023-12-20T13:23:10;7.20;99.90
11583;DHT22;34299;50.820;4.548;2023-12-20T13:25:37;7.10;99.90
11583;DHT22;34299;50.820;4.548;2023-12-20T13:28:05;7.20;99.90
11583;DHT22;34299;50.820;4.548;2023-12-20T13:30:32;7.20;99.90
11583;DHT22;34299;50.820;4.548;2023-12-20T13:32:59;7.30;99.90
11583;DHT22;34299;50.820;4.548;2023-12-20T13:35:26;7.40;99.90
11583;DHT22;34299;50.820;4.548;2023-12-20T13:37:52;7.50;99.90
11583;DHT22;34299;50.820;4.548;2023-12-20T13:40:19;7.40;99.90
11583;DHT22;34299;50.820;4.548;2023-12-20T13:42:46;7.40;99.90
11583;DHT22;34299;50.820;4.548;2023-12-20T13:45:16;7.50;99.90
11583;DHT22;34299;50.820;4.548;2023-12-20T13:47:42;7.50;99.90
11583;DHT22;34299;50.820;4.548;2023-12-20T13:50:09;7.50;99.90
11583;DHT22;34299;50.820;4.548;2023-12-20T13:52:36;7.40;99.90
11583;DHT22;34299;50.820;4.548;2023-12-20T13:55:03;7.50;99.90
11583;DHT22;34299;50.820;4.548;2023-12-20T13:57:30;7.70;99.90
11583;DHT22;34299;50.820;4.548;2023-12-20T13:59:57;7.60;99.90
11583;DHT22;34299;50.820;4.548;2023-12-20T14:02:25;7.70;99.90
11583;DHT22;34299;50.820;4.548;2023-12-20T14:04:52;7.60;99.90
11583;DHT22;34299;50.820;4.548;2023-12-20T14:07:19;7.70;99.90
11583;DHT22;34299;50.820;4.548;2023-12-20T14:09:46;7.70;99.90
11583;DHT22;34299;50.820;4.548;2023-12-20T14:12:14;7.80;99.90
11583;DHT22;34299;50.820;4.548;2023-12-20T14:14:40;7.70;99.90
11583;DHT22;34299;50.820;4.548;2023-12-20T14:17:07;7.80;99.90
11583;DHT22;34299;50.820;4.548;2023-12-20T14:19:35;7.70;99.90
11583;DHT22;34299;50.820;4.548;2023-12-20T14:22:02;7.80;99.90
11583;DHT22;34299;50.820;4.548;2023-12-20T14:24:29;7.70;99.90
11583;DHT22;34299;50.820;4.548;2023-12-20T14:26:56;7.70;99.90
11583;DHT22;34299;50.820;4.548;2023-12-20T14:29:24;7.80;99.90
11583;DHT22;34299;50.820;4.548;2023-12-20T14:31:50;7.90;99.90
11583;DHT22;34299;50.820;4.548;2023-12-20T14:34:17;7.90;99.90
11583;DHT22;34299;50.820;4.548;2023-12-20T14:36:45;7.90;99.90
11583;DHT22;34299;50.820;4.548;2023-12-20T14:39:12;7.90;99.90
11583;DHT22;34299;50.820;4.548;2023-12-20T14:41:40;8.00;99.90
11583;DHT22;34299;50.820;4.548;2023-12-20T14:44:06;8.10;99.90
11583;DHT22;34299;50.820;4.548;2023-12-20T14:46:33;7.90;99.90
11583;DHT22;34299;50.820;4.548;2023-12-20T14:49:00;8.10;99.90
11583;DHT22;34299;50.820;4.548;2023-12-20T14:51:28;8.00;99.90
11583;DHT22;34299;50.820;4.548;2023-12-20T14:53:56;7.90;99.90
11583;DHT22;34299;50.820;4.548;2023-12-20T14:56:23;8.00;99.90
11583;DHT22;34299;50.820;4.548;2023-12-20T14:58:51;7.90;99.90
11583;DHT22;34299;50.820;4.548;2023-12-20T15:01:18;8.00;99.90
11583;DHT22;34299;50.820;4.548;2023-12-20T15:03:46;8.00;99.90
11583;DHT22;34299;50.820;4.548;2023-12-20T15:06:13;8.00;99.90
11583;DHT22;34299;50.820;4.548;2023-12-20T15:08:40;8.00;99.90
11583;DHT22;34299;50.820;4.548;2023-12-20T15:11:08;8.00;99.90
11583;DHT22;34299;50.820;4.548;2023-12-20T15:13:34;8.10;99.90
11583;DHT22;34299;50.820;4.548;2023-12-20T15:16:01;8.10;99.90
11583;DHT22;34299;50.820;4.548;2023-12-20T15:18:30;8.10;99.90
11583;DHT22;34299;50.820;4.548;2023-12-20T15:20:57;8.20;99.90
11583;DHT22;34299;50.820;4.548;2023-12-20T15:23:24;8.30;99.90
11583;DHT22;34299;50.820;4.548;2023-12-20T15:25:51;8.20;99.90
11583;DHT22;34299;50.820;4.548;2023-12-20T15:28:19;8.10;99.90
11583;DHT22;34299;50.820;4.548;2023-12-20T15:30:46;8.20;99.90
11583;DHT22;34299;50.820;4.548;2023-12-20T15:33:13;8.10;99.90
11583;DHT22;34299;50.820;4.548;2023-12-20T15:35:40;8.20;99.90
11583;DHT22;34299;50.820;4.548;2023-12-20T15:38:07;8.20;99.90
11583;DHT22;34299;50.820;4.548;2023-12-20T15:40:33;8.20;99.90
11583;DHT22;34299;50.820;4.548;2023-12-20T15:43:00;8.30;99.90
11583;DHT22;34299;50.820;4.548;2023-12-20T15:45:28;8.20;99.90
11583;DHT22;34299;50.820;4.548;2023-12-20T15:47:54;8.20;99.90